Time;durP1;ratioP1;P1;durP2;ratioP2;P2;SDS_P1;SDS_P2;PMS_P1;PMS_P2;Temp;Humidity;BMP_temperature;BMP_pressure;BME280_temperature;BME280_humidity;BME280_pressure;Samples;Min_cycle;Max_cycle;Signal;HPM_P1;HPM_P2
2022/12/25 00:00:53;;;;;;;0.60;0.50;;;;;;;;;;4896120;29;20477;-77
2022/12/25 00:03:20;;;;;;;0.60;0.60;;;;;;;;;;4894971;29;20505;-76
2022/12/25 00:05:47;;;;;;;0.60;0.50;;;;;;;;;;4892424;29;20495;-75
2022/12/25 00:08:14;;;;;;;0.60;0.50;;;;;;;;;;4889932;29;20452;-76
2022/12/25 00:10:41;;;;;;;0.60;0.50;;;;;;;;;;4894285;29;20471;-76
2022/12/25 00:13:11;;;;;;;0.60;0.50;;;;;;;;;;4896156;29;20455;-76
2022/12/25 00:15:38;;;;;;;0.60;0.50;;;;;;;;;;4888765;29;20447;-75
2022/12/25 00:18:06;;;;;;;0.60;0.50;;;;;;;;;;4895384;29;20486;-76
2022/12/25 00:20:34;;;;;;;0.60;0.50;;;;;;;;;;4879718;29;20554;-76
2022/12/25 00:23:01;;;;;;;0.60;0.50;;;;;;;;;;4891032;29;20960;-76
2022/12/25 00:25:28;;;;;;;0.60;0.50;;;;;;;;;;4892392;29;20471;-75
2022/12/25 00:27:55;;;;;;;0.70;0.60;;;;;;;;;;4893765;29;20458;-75
2022/12/25 00:30:22;;;;;;;0.60;0.50;;;;;;;;;;4889592;29;20446;-76
2022/12/25 00:32:51;;;;;;;0.60;0.50;;;;;;;;;;4889802;29;20466;-77
2022/12/25 00:35:20;;;;;;;0.60;0.50;;;;;;;;;;4890005;29;20570;-77
2022/12/25 00:37:52;;;;;;;0.60;0.50;;;;;;;;;;4894306;29;21008;-76
2022/12/25 00:40:18;;;;;;;0.60;0.50;;;;;;;;;;4897014;29;20439;-77
2022/12/25 00:42:47;;;;;;;0.90;0.90;;;;;;;;;;4901829;29;20455;-77
2022/12/25 00:45:15;;;;;;;0.60;0.60;;;;;;;;;;4890918;29;20451;-77
2022/12/25 00:47:43;;;;;;;0.60;0.60;;;;;;;;;;4896765;29;20538;-76
2022/12/25 00:50:10;;;;;;;0.60;0.50;;;;;;;;;;4894738;29;20439;-76
2022/12/25 00:52:39;;;;;;;0.60;0.60;;;;;;;;;;4889954;29;20563;-77
2022/12/25 00:55:05;;;;;;;0.60;0.60;;;;;;;;;;4897071;29;20533;-76
2022/12/25 00:57:35;;;;;;;0.60;0.60;;;;;;;;;;4888884;29;20453;-77
2022/12/25 01:00:03;;;;;;;0.60;0.50;;;;;;;;;;4895129;29;20497;-76
2022/12/25 01:02:30;;;;;;;0.60;0.50;;;;;;;;;;4894827;29;21019;-76
2022/12/25 01:04:56;;;;;;;0.60;0.50;;;;;;;;;;4903800;29;20462;-77
2022/12/25 01:07:25;;;;;;;0.60;0.60;;;;;;;;;;4894186;29;20500;-77
2022/12/25 01:12:40;;;;;;;1.27;1.17;;;;;;;;;;4901281;29;20444;-76
2022/12/25 01:15:09;;;;;;;0.60;0.60;;;;;;;;;;4896478;29;20446;-77
2022/12/25 01:17:36;;;;;;;0.60;0.50;;;;;;;;;;4904038;29;20503;-77
2022/12/25 01:20:03;;;;;;;0.60;0.60;;;;;;;;;;4890129;29;20463;-77
2022/12/25 01:22:30;;;;;;;0.60;0.60;;;;;;;;;;4888301;29;20448;-76
2022/12/25 01:24:58;;;;;;;0.60;0.50;;;;;;;;;;4889398;29;20521;-76
2022/12/25 01:27:25;;;;;;;0.60;0.53;;;;;;;;;;4879319;29;20442;-77
2022/12/25 01:29:52;;;;;;;0.97;0.90;;;;;;;;;;4885700;29;20942;-77
2022/12/25 01:32:19;;;;;;;1.93;1.23;;;;;;;;;;4886829;29;20490;-77
2022/12/25 01:34:46;;;;;;;0.60;0.60;;;;;;;;;;4890090;29;20450;-78
2022/12/25 01:37:22;;;;;;;0.60;0.50;;;;;;;;;;4896291;29;20598;-78
2022/12/25 01:39:49;;;;;;;0.60;0.60;;;;;;;;;;4894136;29;20547;-77
2022/12/25 01:42:19;;;;;;;1.10;0.80;;;;;;;;;;4889332;29;20449;-77
2022/12/25 01:45:13;;;;;;;0.60;0.60;;;;;;;;;;4890952;29;20479;-78
2022/12/25 01:47:39;;;;;;;0.60;0.50;;;;;;;;;;4845963;29;20490;-78
2022/12/25 01:50:07;;;;;;;0.60;0.50;;;;;;;;;;4895925;29;20505;-77
2022/12/25 01:52:34;;;;;;;0.60;0.60;;;;;;;;;;4887867;29;20485;-78
2022/12/25 01:55:03;;;;;;;0.60;0.60;;;;;;;;;;4902025;29;20983;-77
2022/12/25 01:57:33;;;;;;;0.60;0.50;;;;;;;;;;4896231;29;20456;-77
2022/12/25 02:00:00;;;;;;;0.60;0.60;;;;;;;;;;4893025;29;20527;-76
2022/12/25 02:02:30;;;;;;;0.60;0.60;;;;;;;;;;4885579;29;20452;-77
2022/12/25 02:04:58;;;;;;;0.60;0.60;;;;;;;;;;4896328;29;20437;-77
2022/12/25 02:07:26;;;;;;;0.60;0.60;;;;;;;;;;4889296;29;20539;-76
2022/12/25 02:09:53;;;;;;;0.60;0.60;;;;;;;;;;4887875;29;20467;-76
2022/12/25 02:12:21;;;;;;;0.60;0.60;;;;;;;;;;4896114;29;20830;-78
2022/12/25 02:14:50;;;;;;;0.60;0.60;;;;;;;;;;4888765;29;20498;-77
2022/12/25 02:17:22;;;;;;;0.60;0.60;;;;;;;;;;4881245;29;20556;-77
2022/12/25 02:20:16;;;;;;;0.60;0.60;;;;;;;;;;4895923;29;20479;-76
2022/12/25 02:22:49;;;;;;;0.60;0.60;;;;;;;;;;4832402;29;20482;-77
2022/12/25 02:25:28;;;;;;;0.60;0.50;;;;;;;;;;4897399;29;20538;-77
2022/12/25 02:28:01;;;;;;;0.60;0.50;;;;;;;;;;4892173;29;20456;-77
2022/12/25 02:30:31;;;;;;;0.60;0.50;;;;;;;;;;4897671;29;20457;-77
2022/12/25 02:35:50;;;;;;;0.60;0.60;;;;;;;;;;4892992;29;20519;-77
2022/12/25 02:38:19;;;;;;;0.60;0.60;;;;;;;;;;4899678;29;20498;-77
2022/12/25 02:40:50;;;;;;;0.60;0.60;;;;;;;;;;4881595;29;20459;-78
2022/12/25 03:08:27;;;;;;;0.60;0.60;;;;;;;;;;4889095;29;20776;-77
2022/12/25 03:13:47;;;;;;;0.60;0.57;;;;;;;;;;4888445;29;20528;-77
2022/12/25 03:26:53;;;;;;;0.60;0.60;;;;;;;;;;4884354;29;20476;-77
2022/12/25 03:27:21;;;;;;;0.60;0.60;;;;;;;;;;4892329;29;20467;-79
2022/12/25 03:32:38;;;;;;;0.60;0.60;;;;;;;;;;4889814;29;20991;-78
2022/12/25 03:35:24;;;;;;;0.60;0.60;;;;;;;;;;4898149;29;20457;-78
2022/12/25 04:36:44;;;;;;;0.60;0.50;;;;;;;;;;4894249;29;20504;-77
2022/12/25 04:39:13;;;;;;;0.63;0.63;;;;;;;;;;4892832;29;20994;-77
2022/12/25 04:41:42;;;;;;;0.60;0.60;;;;;;;;;;4890668;29;20444;-78
2022/12/25 04:44:09;;;;;;;0.60;0.50;;;;;;;;;;4901845;29;20463;-78
2022/12/25 04:46:36;;;;;;;0.60;0.50;;;;;;;;;;4892358;29;20841;-78
2022/12/25 04:49:04;;;;;;;2.30;1.63;;;;;;;;;;4893943;29;20472;-77
2022/12/25 04:51:30;;;;;;;0.60;0.60;;;;;;;;;;4890336;29;20435;-79
2022/12/25 04:53:57;;;;;;;0.60;0.50;;;;;;;;;;4895279;29;20586;-78
2022/12/25 04:56:28;;;;;;;0.60;0.60;;;;;;;;;;4896063;29;20466;-78
2022/12/25 04:58:56;;;;;;;0.60;0.57;;;;;;;;;;4871893;29;20484;-78
2022/12/25 05:01:23;;;;;;;0.60;0.60;;;;;;;;;;4894566;29;20488;-79
2022/12/25 05:03:51;;;;;;;0.60;0.60;;;;;;;;;;4880877;29;20515;-78
2022/12/25 05:06:19;;;;;;;0.60;0.60;;;;;;;;;;4887444;29;20444;-78
2022/12/25 05:08:47;;;;;;;0.60;0.60;;;;;;;;;;4896752;29;20459;-79
2022/12/25 05:11:15;;;;;;;0.60;0.60;;;;;;;;;;4883307;29;20479;-78
2022/12/25 05:13:43;;;;;;;0.70;0.70;;;;;;;;;;4894629;29;20461;-79
2022/12/25 05:16:13;;;;;;;0.70;0.70;;;;;;;;;;4894240;29;20499;-78
2022/12/25 05:18:43;;;;;;;0.60;0.60;;;;;;;;;;4892970;29;20480;-78
2022/12/25 05:21:11;;;;;;;0.60;0.60;;;;;;;;;;4889455;29;20455;-79
2022/12/25 05:23:47;;;;;;;0.60;0.60;;;;;;;;;;4885707;29;20988;-79
2022/12/25 05:26:19;;;;;;;0.70;0.60;;;;;;;;;;4895610;29;20457;-79
2022/12/25 05:28:50;;;;;;;0.60;0.60;;;;;;;;;;4903994;29;20897;-79
2022/12/25 05:31:20;;;;;;;0.60;0.60;;;;;;;;;;4905053;29;20437;-79
2022/12/25 05:33:49;;;;;;;0.63;0.63;;;;;;;;;;4906997;29;20873;-78
2022/12/25 05:36:18;;;;;;;0.60;0.50;;;;;;;;;;4880413;29;20836;-79
2022/12/25 05:38:46;;;;;;;0.60;0.57;;;;;;;;;;4900877;29;20459;-79
2022/12/25 05:41:14;;;;;;;0.60;0.60;;;;;;;;;;4893560;29;20474;-78
2022/12/25 05:43:41;;;;;;;0.60;0.60;;;;;;;;;;4879746;29;20455;-78
2022/12/25 05:46:10;;;;;;;0.70;0.70;;;;;;;;;;4889512;29;20479;-78
2022/12/25 05:48:39;;;;;;;0.60;0.60;;;;;;;;;;4888799;29;20887;-77
2022/12/25 05:51:07;;;;;;;0.60;0.50;;;;;;;;;;4881524;29;20458;-77
2022/12/25 05:53:34;;;;;;;0.67;0.67;;;;;;;;;;4894248;29;20454;-78
2022/12/25 05:56:02;;;;;;;0.60;0.60;;;;;;;;;;4893624;29;20535;-78
2022/12/25 05:58:50;;;;;;;0.60;0.60;;;;;;;;;;4893464;29;20462;-77
2022/12/25 06:01:19;;;;;;;0.60;0.50;;;;;;;;;;4896928;29;20476;-77
2022/12/25 06:03:47;;;;;;;0.60;0.60;;;;;;;;;;4889361;29;20486;-77
2022/12/25 06:06:14;;;;;;;0.60;0.50;;;;;;;;;;4900461;29;20443;-77
2022/12/25 06:08:40;;;;;;;0.60;0.53;;;;;;;;;;4891726;29;20615;-77
2022/12/25 06:11:08;;;;;;;0.70;0.70;;;;;;;;;;4906063;29;20460;-76
2022/12/25 06:13:35;;;;;;;0.60;0.60;;;;;;;;;;4897554;29;21639;-77
2022/12/25 06:16:12;;;;;;;0.70;0.70;;;;;;;;;;4892313;29;20451;-76
2022/12/25 06:18:48;;;;;;;0.60;0.60;;;;;;;;;;4890415;29;20474;-79
2022/12/25 06:21:21;;;;;;;0.60;0.60;;;;;;;;;;4892053;29;20479;-79
2022/12/25 06:23:54;;;;;;;0.60;0.60;;;;;;;;;;4892910;29;20457;-78
2022/12/25 06:26:28;;;;;;;0.60;0.60;;;;;;;;;;4895908;29;20470;-78
2022/12/25 06:28:58;;;;;;;0.70;0.70;;;;;;;;;;4896511;29;20434;-79
2022/12/25 06:31:31;;;;;;;0.60;0.60;;;;;;;;;;4883059;29;20459;-77
2022/12/25 06:34:03;;;;;;;0.60;0.50;;;;;;;;;;4909520;29;21071;-78
2022/12/25 06:36:36;;;;;;;0.67;0.63;;;;;;;;;;4896264;29;20464;-79
2022/12/25 06:39:06;;;;;;;0.60;0.60;;;;;;;;;;4896787;29;20471;-78
2022/12/25 06:41:38;;;;;;;0.70;0.70;;;;;;;;;;4897365;29;20842;-79
2022/12/25 06:44:09;;;;;;;0.60;0.60;;;;;;;;;;4895748;29;20473;-80
2022/12/25 06:46:40;;;;;;;0.60;0.60;;;;;;;;;;4892779;29;20429;-79
2022/12/25 06:49:08;;;;;;;0.60;0.60;;;;;;;;;;4892962;29;20476;-78
2022/12/25 06:51:36;;;;;;;1.10;0.93;;;;;;;;;;4892725;29;20454;-79
2022/12/25 06:54:03;;;;;;;0.60;0.60;;;;;;;;;;4881796;29;21023;-78
2022/12/25 06:56:30;;;;;;;0.60;0.60;;;;;;;;;;4890998;29;20438;-77
2022/12/25 06:58:58;;;;;;;0.60;0.60;;;;;;;;;;4897202;29;20449;-77
2022/12/25 07:01:27;;;;;;;0.60;0.60;;;;;;;;;;4891447;29;20469;-78
2022/12/25 07:03:55;;;;;;;0.60;0.60;;;;;;;;;;4895794;29;20470;-78
2022/12/25 07:06:23;;;;;;;0.60;0.50;;;;;;;;;;4898327;29;20456;-78
2022/12/25 07:08:50;;;;;;;0.60;0.60;;;;;;;;;;4881028;29;20466;-78
2022/12/25 07:11:19;;;;;;;0.60;0.60;;;;;;;;;;4889113;29;21017;-79
2022/12/25 07:13:45;;;;;;;0.60;0.50;;;;;;;;;;4896281;29;21007;-79
2022/12/25 07:16:13;;;;;;;0.60;0.60;;;;;;;;;;4890435;29;21058;-78
2022/12/25 07:18:41;;;;;;;0.70;0.70;;;;;;;;;;4880988;29;20568;-78
2022/12/25 07:21:08;;;;;;;0.60;0.50;;;;;;;;;;4894419;29;20563;-78
2022/12/25 07:23:37;;;;;;;0.60;0.60;;;;;;;;;;4889547;29;20440;-78
2022/12/25 07:26:04;;;;;;;0.60;0.60;;;;;;;;;;4895485;29;20488;-79
2022/12/25 07:28:31;;;;;;;0.60;0.60;;;;;;;;;;4878115;29;20531;-78
2022/12/25 07:31:02;;;;;;;0.60;0.60;;;;;;;;;;4890663;29;20574;-78
2022/12/25 07:33:30;;;;;;;0.60;0.50;;;;;;;;;;4890517;29;20490;-78
2022/12/25 07:35:56;;;;;;;0.60;0.60;;;;;;;;;;4890119;29;20821;-79
2022/12/25 07:38:24;;;;;;;0.60;0.60;;;;;;;;;;4886634;29;20952;-79
2022/12/25 07:40:52;;;;;;;0.60;0.60;;;;;;;;;;4887009;29;20505;-79
2022/12/25 07:43:19;;;;;;;0.70;0.70;;;;;;;;;;4880791;29;20449;-80
2022/12/25 07:45:46;;;;;;;0.90;0.90;;;;;;;;;;4885753;29;20471;-79
2022/12/25 07:48:14;;;;;;;0.60;0.60;;;;;;;;;;4894707;29;20513;-79
2022/12/25 07:50:42;;;;;;;0.60;0.60;;;;;;;;;;4898051;29;20994;-78
2022/12/25 07:53:09;;;;;;;1.00;0.90;;;;;;;;;;4897644;29;20467;-78
2022/12/25 07:55:37;;;;;;;1.03;0.97;;;;;;;;;;4891323;29;20467;-78
2022/12/25 07:58:05;;;;;;;0.60;0.60;;;;;;;;;;4896369;29;20466;-79
2022/12/25 08:00:32;;;;;;;0.60;0.50;;;;;;;;;;4881911;29;20478;-78
2022/12/25 08:03:01;;;;;;;0.60;0.60;;;;;;;;;;4891766;29;20466;-78
2022/12/25 08:05:31;;;;;;;0.60;0.60;;;;;;;;;;4905648;29;20482;-76
2022/12/25 08:07:58;;;;;;;0.93;0.93;;;;;;;;;;4899441;29;20990;-76
2022/12/25 08:10:24;;;;;;;0.60;0.50;;;;;;;;;;4875100;29;20459;-78
2022/12/25 08:13:14;;;;;;;0.80;0.80;;;;;;;;;;4895086;29;20502;-76
2022/12/25 08:15:42;;;;;;;3.57;1.33;;;;;;;;;;4901189;29;20451;-76
2022/12/25 08:18:09;;;;;;;0.60;0.60;;;;;;;;;;4889851;29;20999;-79
2022/12/25 08:20:36;;;;;;;0.70;0.60;;;;;;;;;;4896476;29;20476;-79
2022/12/25 08:23:03;;;;;;;0.60;0.60;;;;;;;;;;4897591;29;20451;-78
2022/12/25 08:25:30;;;;;;;0.60;0.60;;;;;;;;;;4894368;29;20586;-79
2022/12/25 08:27:58;;;;;;;0.60;0.60;;;;;;;;;;4897734;29;20520;-79
2022/12/25 08:30:26;;;;;;;0.60;0.53;;;;;;;;;;4887760;29;20433;-79
2022/12/25 08:32:54;;;;;;;0.60;0.60;;;;;;;;;;4894242;29;20487;-77
2022/12/25 08:35:21;;;;;;;0.60;0.60;;;;;;;;;;4896406;29;20460;-78
2022/12/25 08:37:50;;;;;;;0.60;0.60;;;;;;;;;;4896682;29;20526;-77
2022/12/25 08:40:17;;;;;;;0.60;0.60;;;;;;;;;;4896282;29;20519;-77
2022/12/25 08:42:44;;;;;;;0.60;0.50;;;;;;;;;;4908055;29;20506;-77
2022/12/25 08:45:11;;;;;;;0.70;0.70;;;;;;;;;;4892556;29;20444;-78
2022/12/25 08:47:39;;;;;;;0.70;0.70;;;;;;;;;;4894133;29;20482;-78
2022/12/25 08:50:08;;;;;;;0.60;0.60;;;;;;;;;;4892587;29;20456;-78
2022/12/25 08:52:35;;;;;;;0.67;0.67;;;;;;;;;;4895811;29;20471;-79
2022/12/25 08:55:02;;;;;;;0.60;0.57;;;;;;;;;;4896277;29;20934;-79
2022/12/25 08:57:29;;;;;;;0.80;0.80;;;;;;;;;;4896954;29;20461;-78
2022/12/25 08:59:55;;;;;;;0.60;0.60;;;;;;;;;;4896782;29;20446;-78
2022/12/25 09:02:22;;;;;;;0.60;0.60;;;;;;;;;;4890116;29;20530;-76
2022/12/25 09:04:51;;;;;;;0.60;0.60;;;;;;;;;;4893513;29;20459;-76
2022/12/25 09:07:18;;;;;;;0.60;0.60;;;;;;;;;;4903713;29;20458;-76
2022/12/25 09:09:46;;;;;;;0.60;0.60;;;;;;;;;;4894598;29;20571;-76
2022/12/25 09:12:14;;;;;;;0.70;0.70;;;;;;;;;;4888245;29;20477;-75
2022/12/25 09:14:54;;;;;;;0.60;0.60;;;;;;;;;;4891563;29;20473;-77
2022/12/25 09:17:42;;;;;;;0.60;0.60;;;;;;;;;;4890076;29;20460;-77
2022/12/25 09:20:12;;;;;;;0.60;0.60;;;;;;;;;;4893073;29;20452;-77
2022/12/25 09:22:38;;;;;;;0.60;0.50;;;;;;;;;;4893143;29;20473;-76
2022/12/25 09:25:05;;;;;;;0.60;0.60;;;;;;;;;;4894506;29;21064;-76
2022/12/25 09:27:38;;;;;;;0.60;0.60;;;;;;;;;;4892870;29;20450;-77
2022/12/25 09:30:06;;;;;;;0.60;0.60;;;;;;;;;;4880137;29;20982;-76
2022/12/25 09:32:33;;;;;;;0.60;0.60;;;;;;;;;;4870188;29;20543;-76
2022/12/25 09:35:00;;;;;;;0.60;0.60;;;;;;;;;;4893545;29;20465;-75
2022/12/25 09:37:28;;;;;;;1.20;1.13;;;;;;;;;;4895870;29;20929;-75
2022/12/25 09:39:55;;;;;;;0.60;0.60;;;;;;;;;;4886726;29;20451;-76
2022/12/25 09:42:27;;;;;;;0.60;0.50;;;;;;;;;;4888712;29;20568;-76
2022/12/25 09:44:56;;;;;;;0.70;0.70;;;;;;;;;;4896229;29;20526;-76
2022/12/25 09:47:25;;;;;;;0.60;0.60;;;;;;;;;;4892479;29;20980;-76
2022/12/25 09:49:53;;;;;;;0.60;0.60;;;;;;;;;;4886135;29;20460;-75
2022/12/25 09:52:22;;;;;;;7.20;2.30;;;;;;;;;;4887745;29;20436;-75
2022/12/25 09:54:53;;;;;;;0.60;0.60;;;;;;;;;;4894675;29;20461;-75
2022/12/25 09:57:20;;;;;;;0.60;0.60;;;;;;;;;;4887379;29;20451;-75
2022/12/25 09:59:47;;;;;;;0.60;0.60;;;;;;;;;;4895018;29;20432;-74
2022/12/25 10:02:34;;;;;;;0.60;0.50;;;;;;;;;;4894481;29;20490;-75
2022/12/25 10:05:09;;;;;;;0.60;0.60;;;;;;;;;;4885137;29;20467;-72
2022/12/25 10:07:40;;;;;;;0.60;0.60;;;;;;;;;;4887383;29;20490;-73
2022/12/25 10:10:16;;;;;;;0.60;0.60;;;;;;;;;;4889863;29;20556;-72
2022/12/25 10:12:48;;;;;;;0.60;0.60;;;;;;;;;;4895337;29;20858;-72
2022/12/25 10:15:20;;;;;;;0.60;0.60;;;;;;;;;;4885510;29;20431;-74
2022/12/25 10:17:56;;;;;;;0.60;0.60;;;;;;;;;;4888154;29;20516;-74
2022/12/25 10:20:33;;;;;;;0.60;0.60;;;;;;;;;;4901795;29;20544;-73
2022/12/25 10:23:02;;;;;;;0.60;0.60;;;;;;;;;;4895364;29;20506;-72
2022/12/25 10:25:31;;;;;;;0.60;0.50;;;;;;;;;;4899731;29;20460;-74
2022/12/25 10:28:00;;;;;;;0.60;0.60;;;;;;;;;;4888512;29;20443;-72
2022/12/25 10:30:28;;;;;;;0.60;0.60;;;;;;;;;;4895535;29;20451;-73
2022/12/25 10:32:58;;;;;;;0.60;0.50;;;;;;;;;;4893798;29;20456;-73
2022/12/25 10:35:26;;;;;;;0.60;0.57;;;;;;;;;;4888365;29;20435;-73
2022/12/25 10:37:56;;;;;;;0.60;0.50;;;;;;;;;;4887147;29;20458;-72
2022/12/25 10:40:35;;;;;;;0.80;0.80;;;;;;;;;;4893011;29;20465;-73
2022/12/25 10:43:06;;;;;;;0.60;0.60;;;;;;;;;;4895744;29;20512;-73
2022/12/25 10:45:41;;;;;;;0.60;0.60;;;;;;;;;;4907010;29;20455;-73
2022/12/25 10:48:11;;;;;;;0.60;0.60;;;;;;;;;;4896210;29;20478;-73
2022/12/25 10:50:41;;;;;;;0.60;0.60;;;;;;;;;;4891532;29;20441;-73
2022/12/25 10:53:15;;;;;;;0.60;0.60;;;;;;;;;;4888200;29;20466;-73
2022/12/25 10:55:52;;;;;;;0.60;0.60;;;;;;;;;;4891506;29;20460;-74
2022/12/25 10:58:18;;;;;;;0.60;0.60;;;;;;;;;;4890141;29;20494;-74
2022/12/25 11:00:50;;;;;;;0.60;0.60;;;;;;;;;;4895627;29;20833;-74
2022/12/25 11:03:24;;;;;;;0.70;0.70;;;;;;;;;;4909798;29;20486;-74
2022/12/25 11:05:51;;;;;;;0.60;0.60;;;;;;;;;;4890236;29;20948;-74
2022/12/25 11:08:20;;;;;;;0.60;0.60;;;;;;;;;;4895994;29;20973;-74
2022/12/25 11:10:53;;;;;;;0.60;0.50;;;;;;;;;;4895189;29;20489;-73
2022/12/25 11:13:21;;;;;;;0.60;0.60;;;;;;;;;;4886596;29;20457;-74
2022/12/25 11:15:48;;;;;;;0.60;0.60;;;;;;;;;;4890921;29;20436;-74
2022/12/25 11:18:18;;;;;;;0.60;0.60;;;;;;;;;;4896223;29;20468;-73
2022/12/25 11:20:49;;;;;;;0.60;0.50;;;;;;;;;;4889749;29;20438;-73
2022/12/25 11:23:19;;;;;;;0.60;0.60;;;;;;;;;;4895267;29;20561;-73
2022/12/25 11:25:55;;;;;;;0.60;0.60;;;;;;;;;;4888909;29;20570;-72
2022/12/25 11:28:21;;;;;;;0.60;0.60;;;;;;;;;;4895860;29;20512;-72
2022/12/25 11:30:52;;;;;;;0.60;0.60;;;;;;;;;;4896524;29;20453;-73
2022/12/25 11:33:19;;;;;;;0.60;0.50;;;;;;;;;;4894418;29;20471;-72
2022/12/25 11:35:49;;;;;;;0.60;0.60;;;;;;;;;;4888304;29;20442;-72
2022/12/25 11:38:16;;;;;;;0.60;0.60;;;;;;;;;;4890206;29;20504;-72
2022/12/25 11:40:46;;;;;;;0.60;0.60;;;;;;;;;;4896358;29;20442;-72
2022/12/25 11:43:17;;;;;;;1.10;1.10;;;;;;;;;;4890556;29;20543;-72
2022/12/25 11:45:45;;;;;;;0.60;0.60;;;;;;;;;;4888577;29;20909;-72
2022/12/25 11:48:13;;;;;;;0.60;0.60;;;;;;;;;;4889185;29;20484;-72
2022/12/25 11:50:41;;;;;;;1.57;1.17;;;;;;;;;;4896499;29;20446;-73
2022/12/25 11:53:13;;;;;;;0.60;0.60;;;;;;;;;;4896061;29;20432;-72
2022/12/25 11:55:40;;;;;;;0.60;0.60;;;;;;;;;;4896474;29;21031;-72
2022/12/25 11:58:16;;;;;;;0.60;0.60;;;;;;;;;;4888417;29;20997;-72
2022/12/25 12:00:46;;;;;;;0.60;0.60;;;;;;;;;;4888996;29;20921;-72
2022/12/25 12:03:15;;;;;;;0.60;0.60;;;;;;;;;;4893909;29;20472;-72
2022/12/25 12:05:44;;;;;;;0.60;0.53;;;;;;;;;;4888397;29;20817;-72
2022/12/25 12:08:12;;;;;;;0.60;0.50;;;;;;;;;;4891233;29;20450;-73
2022/12/25 12:10:44;;;;;;;0.60;0.60;;;;;;;;;;4893883;29;20495;-74
2022/12/25 12:13:17;;;;;;;0.60;0.60;;;;;;;;;;4889350;29;20791;-74
2022/12/25 12:15:46;;;;;;;0.60;0.60;;;;;;;;;;4890441;29;20967;-73
2022/12/25 12:18:18;;;;;;;0.70;0.70;;;;;;;;;;4891470;29;21169;-73
2022/12/25 12:20:56;;;;;;;0.60;0.60;;;;;;;;;;4884007;29;20436;-73
2022/12/25 12:23:23;;;;;;;0.60;0.60;;;;;;;;;;4897162;29;20444;-73
2022/12/25 12:25:50;;;;;;;2.80;1.00;;;;;;;;;;4890003;29;20477;-73
2022/12/25 12:28:20;;;;;;;0.60;0.60;;;;;;;;;;4893299;29;20493;-73
2022/12/25 12:31:02;;;;;;;0.60;0.57;;;;;;;;;;4894788;29;20450;-72
2022/12/25 12:33:31;;;;;;;0.80;0.80;;;;;;;;;;4887300;29;20456;-73
2022/12/25 12:35:59;;;;;;;1.17;1.10;;;;;;;;;;4887455;29;20442;-74
2022/12/25 12:38:26;;;;;;;0.60;0.60;;;;;;;;;;4895433;29;20445;-74
2022/12/25 12:40:54;;;;;;;0.60;0.60;;;;;;;;;;4871644;29;20579;-73
2022/12/25 12:43:30;;;;;;;0.70;0.70;;;;;;;;;;4900776;29;20449;-74
2022/12/25 12:46:00;;;;;;;1.10;1.10;;;;;;;;;;4895386;29;22217;-75
2022/12/25 12:48:29;;;;;;;6.77;1.97;;;;;;;;;;4895536;29;20481;-74
2022/12/25 12:51:02;;;;;;;0.60;0.50;;;;;;;;;;4895231;29;20442;-74
2022/12/25 12:53:30;;;;;;;0.80;0.80;;;;;;;;;;4905987;29;20451;-73
2022/12/25 12:56:10;;;;;;;0.60;0.60;;;;;;;;;;4886909;29;20445;-75
2022/12/25 12:58:44;;;;;;;0.60;0.60;;;;;;;;;;4884361;29;20513;-73
2022/12/25 13:01:15;;;;;;;0.60;0.57;;;;;;;;;;4889690;29;20840;-73
2022/12/25 13:03:51;;;;;;;0.70;0.70;;;;;;;;;;4901022;29;20476;-74
2022/12/25 13:06:19;;;;;;;0.80;0.73;;;;;;;;;;4896067;29;20459;-74
2022/12/25 13:08:53;;;;;;;0.60;0.60;;;;;;;;;;4887959;29;20793;-72
2022/12/25 13:11:21;;;;;;;0.90;0.90;;;;;;;;;;4882598;29;20993;-74
2022/12/25 13:13:49;;;;;;;0.60;0.57;;;;;;;;;;4890377;29;20503;-74
2022/12/25 13:16:21;;;;;;;0.70;0.70;;;;;;;;;;4892358;29;20475;-73
2022/12/25 13:18:51;;;;;;;0.70;0.70;;;;;;;;;;4892555;29;20583;-75
2022/12/25 13:21:20;;;;;;;0.60;0.60;;;;;;;;;;4884772;29;20457;-74
2022/12/25 13:23:54;;;;;;;0.60;0.60;;;;;;;;;;4879454;29;20511;-74
2022/12/25 13:26:21;;;;;;;0.60;0.60;;;;;;;;;;4890112;29;20967;-74
2022/12/25 13:28:47;;;;;;;0.60;0.60;;;;;;;;;;4887274;29;20976;-74
2022/12/25 13:31:16;;;;;;;0.60;0.50;;;;;;;;;;4893217;29;20547;-74
2022/12/25 13:33:45;;;;;;;0.70;0.70;;;;;;;;;;4889159;29;20478;-75
2022/12/25 13:36:14;;;;;;;0.93;0.90;;;;;;;;;;4889407;29;20446;-75
2022/12/25 13:38:59;;;;;;;0.60;0.50;;;;;;;;;;4891866;29;20993;-74
2022/12/25 13:44:27;;;;;;;0.60;0.60;;;;;;;;;;4887631;29;20540;-75
2022/12/25 13:46:55;;;;;;;0.63;0.63;;;;;;;;;;4879910;29;20481;-75
2022/12/25 13:49:22;;;;;;;0.60;0.60;;;;;;;;;;4887068;29;20442;-74
2022/12/25 13:51:51;;;;;;;0.70;0.70;;;;;;;;;;4888290;29;20483;-76
2022/12/25 13:54:18;;;;;;;1.43;1.33;;;;;;;;;;4889183;29;20528;-75
2022/12/25 13:56:49;;;;;;;0.60;0.60;;;;;;;;;;4878162;29;20456;-75
2022/12/25 13:59:17;;;;;;;0.60;0.60;;;;;;;;;;4891369;29;20822;-75
2022/12/25 14:01:45;;;;;;;0.90;0.80;;;;;;;;;;4893183;29;20543;-75
2022/12/25 14:04:13;;;;;;;0.60;0.57;;;;;;;;;;4892889;29;20559;-75
2022/12/25 14:06:40;;;;;;;0.63;0.60;;;;;;;;;;4885841;29;20949;-76
2022/12/25 14:09:09;;;;;;;0.70;0.70;;;;;;;;;;4888465;29;20497;-75
2022/12/25 14:11:37;;;;;;;0.70;0.70;;;;;;;;;;4893708;29;21051;-76
2022/12/25 14:14:06;;;;;;;0.60;0.60;;;;;;;;;;4898017;29;20799;-77
2022/12/25 14:16:33;;;;;;;0.70;0.70;;;;;;;;;;4891513;29;20467;-76
2022/12/25 14:19:01;;;;;;;0.70;0.70;;;;;;;;;;4892955;29;20849;-75
2022/12/25 14:21:30;;;;;;;0.60;0.60;;;;;;;;;;4892432;29;20479;-76
2022/12/25 14:23:57;;;;;;;0.60;0.60;;;;;;;;;;4904353;29;20451;-76
2022/12/25 14:26:27;;;;;;;0.60;0.60;;;;;;;;;;4896065;29;20828;-78
2022/12/25 14:29:01;;;;;;;0.60;0.50;;;;;;;;;;4898904;29;20497;-76
2022/12/25 14:31:31;;;;;;;0.63;0.63;;;;;;;;;;4899417;29;20446;-76
2022/12/25 14:33:58;;;;;;;0.67;0.67;;;;;;;;;;4876280;29;20476;-76
2022/12/25 14:36:26;;;;;;;0.60;0.60;;;;;;;;;;4890178;29;20448;-75
2022/12/25 14:38:56;;;;;;;0.70;0.70;;;;;;;;;;4892508;29;20440;-76
2022/12/25 14:41:35;;;;;;;0.60;0.60;;;;;;;;;;4889945;29;20550;-75
2022/12/25 14:44:05;;;;;;;0.60;0.60;;;;;;;;;;4893848;29;20455;-76
2022/12/25 14:46:33;;;;;;;0.60;0.60;;;;;;;;;;4905605;29;20534;-76
2022/12/25 14:49:01;;;;;;;0.70;0.70;;;;;;;;;;4897541;29;20476;-75
2022/12/25 14:51:29;;;;;;;0.70;0.70;;;;;;;;;;4898377;29;20439;-76
2022/12/25 14:53:57;;;;;;;0.83;0.83;;;;;;;;;;4895680;29;20440;-77
2022/12/25 14:56:25;;;;;;;0.60;0.60;;;;;;;;;;4891945;29;20546;-77
2022/12/25 14:58:53;;;;;;;0.60;0.60;;;;;;;;;;4892190;29;20539;-79
2022/12/25 15:01:27;;;;;;;0.80;0.80;;;;;;;;;;4873747;29;20467;-78
2022/12/25 15:04:02;;;;;;;0.83;0.83;;;;;;;;;;4889464;29;20831;-78
2022/12/25 15:06:30;;;;;;;0.70;0.70;;;;;;;;;;4865030;29;20439;-78
2022/12/25 15:08:58;;;;;;;0.67;0.67;;;;;;;;;;4883233;29;20543;-77
2022/12/25 15:11:27;;;;;;;0.70;0.63;;;;;;;;;;4890811;29;20546;-77
2022/12/25 15:13:54;;;;;;;0.80;0.80;;;;;;;;;;4889593;29;20448;-78
2022/12/25 15:16:24;;;;;;;0.60;0.60;;;;;;;;;;4891963;29;21179;-78
2022/12/25 15:18:52;;;;;;;0.60;0.60;;;;;;;;;;4892610;29;20468;-75
2022/12/25 15:21:22;;;;;;;0.60;0.60;;;;;;;;;;4898494;29;20447;-76
2022/12/25 15:23:49;;;;;;;0.60;0.60;;;;;;;;;;4891325;29;20529;-77
2022/12/25 15:26:16;;;;;;;0.60;0.60;;;;;;;;;;4891424;29;20458;-76
2022/12/25 15:28:43;;;;;;;0.60;0.60;;;;;;;;;;4896350;29;20515;-78
2022/12/25 15:31:17;;;;;;;0.60;0.60;;;;;;;;;;4900035;29;20521;-76
2022/12/25 15:33:45;;;;;;;0.60;0.60;;;;;;;;;;4892497;29;20477;-78
2022/12/25 15:36:13;;;;;;;1.00;1.00;;;;;;;;;;4895307;29;20456;-78
2022/12/25 15:38:40;;;;;;;0.70;0.70;;;;;;;;;;4897524;29;20445;-76
2022/12/25 15:41:10;;;;;;;1.20;1.10;;;;;;;;;;4891816;29;20462;-78
2022/12/25 15:43:37;;;;;;;1.43;1.33;;;;;;;;;;4890638;29;20840;-78
2022/12/25 15:46:07;;;;;;;0.60;0.60;;;;;;;;;;4884474;29;20448;-77
2022/12/25 15:48:34;;;;;;;0.60;0.60;;;;;;;;;;4896891;29;20562;-77
2022/12/25 15:51:03;;;;;;;0.70;0.70;;;;;;;;;;4891038;29;20446;-77
2022/12/25 15:53:29;;;;;;;0.60;0.60;;;;;;;;;;4896341;29;20770;-77
2022/12/25 15:56:18;;;;;;;0.70;0.70;;;;;;;;;;4892645;29;20454;-76
2022/12/25 15:58:46;;;;;;;0.70;0.70;;;;;;;;;;4897239;29;20510;-77
2022/12/25 16:01:16;;;;;;;0.70;0.70;;;;;;;;;;4896616;29;20478;-77
2022/12/25 16:03:44;;;;;;;1.30;1.20;;;;;;;;;;4891479;29;20485;-77
2022/12/25 16:06:13;;;;;;;1.50;1.40;;;;;;;;;;4889519;29;20456;-77
2022/12/25 16:08:41;;;;;;;0.70;0.70;;;;;;;;;;4897308;29;20477;-76
2022/12/25 16:11:08;;;;;;;0.60;0.60;;;;;;;;;;4891605;29;20454;-77
2022/12/25 16:13:35;;;;;;;0.63;0.63;;;;;;;;;;4888637;29;20427;-76
2022/12/25 16:16:03;;;;;;;0.93;0.83;;;;;;;;;;4881723;29;20992;-76
2022/12/25 16:18:30;;;;;;;1.10;0.93;;;;;;;;;;4891303;29;20814;-76
2022/12/25 16:20:58;;;;;;;0.70;0.70;;;;;;;;;;4880318;29;20495;-77
2022/12/25 16:23:26;;;;;;;0.70;0.70;;;;;;;;;;4886205;29;21031;-77
2022/12/25 16:25:53;;;;;;;0.60;0.60;;;;;;;;;;4873127;29;20468;-78
2022/12/25 16:28:20;;;;;;;0.70;0.70;;;;;;;;;;4883804;29;20482;-77
2022/12/25 16:30:46;;;;;;;0.60;0.60;;;;;;;;;;4895531;29;20876;-77
2022/12/25 16:33:14;;;;;;;2.50;1.00;;;;;;;;;;4894303;29;20492;-78
2022/12/25 16:35:41;;;;;;;0.60;0.60;;;;;;;;;;4896465;29;20435;-76
2022/12/25 16:38:07;;;;;;;1.47;1.10;;;;;;;;;;4887103;29;20468;-77
2022/12/25 16:40:36;;;;;;;0.70;0.70;;;;;;;;;;4907911;29;20459;-78
2022/12/25 16:43:03;;;;;;;0.70;0.70;;;;;;;;;;4893977;29;20475;-77